Domov               UVHVVR             MKGP            O straneh              
ZDRAVSTVENO VARSTVO RASTLIN
  MREŽA AGROMET. POSTAJ
 ► PROGNOSTIČNA OBVESTILA
AGROMETEOROLOŠKI PODATKI -
ARSO
OBVLADOVANJE TVEGANJ ZARADI
NEUGODNIH VREMENSKIH RAZMER
  ► NARAVNE NESREČE
  ► SUŠA/MOČA
  ► NAMAKANJE
  ► ŽLED (gozdarstvo)
KARTOGRAFSKI PRIKAZI
SPLETNE POVEZAVE
PROJEKTI IN PUBLIKACIJE

AGROMETEOROLOŠKA MREŽA: VREMENSKE POSTAJE IN FENOLOŠKA OPAZOVANJA

Pregled podatkov za lokacijo Pohorski dvor, meteorološka postaja 27262

Pregled senzorjev na lokaciji

ID Ime Zadnja
vrednost
Datum
zadnje
spremembe
Tip
senzorja
959 Relativna vlaga 2 m (% RH) 52,37 % RH 18.10.2017 18:01 Generic 0 - 100 %
960 Omočenost lista (U) 0 U 18.10.2017 18:01 A730WET
961 Padavine 0.2 mm (mm) 0 mm 18.10.2017 18:00 Generic
963 Temperatura 2 m ( °C) 16,99 °C 18.10.2017 18:01 Generic -40 - +60 °C

Pregled podatkov zadnjih 24 ur

Zap.
št.
Datum in čas Pohorski dvor
Omočenost
lista
Padavine
0.2
mm
Relativna
vlaga
2
m
Temperatura
2
m
0 18.10.2017 17:00 0 0 49,46 17,58
1 18.10.2017 16:30 0 0 39,33 20,06
2 18.10.2017 16:00 0 0 34,7 21,3
3 18.10.2017 15:30 0 0 33,22 21,88
4 18.10.2017 15:00 0 0 31,92 22,36
5 18.10.2017 14:30 0 0 31,12 22,68
6 18.10.2017 14:00 0 0 31,58 23,08
7 18.10.2017 13:30 0 0 31,19 23,03
8 18.10.2017 13:00 0 0 32,77 23,25
9 18.10.2017 12:30 0 0 40,94 22,18
10 18.10.2017 12:00 0 0 47,71 21,24
11 18.10.2017 11:30 0 0 56,04 19,84
12 18.10.2017 11:00 0 0 61,11 18,79
13 18.10.2017 10:30 0 0 68,06 17,34
14 18.10.2017 10:00 1,77 0 78,43 15,76
15 18.10.2017 09:30 8,5 0 86,88 14,28
16 18.10.2017 09:00 10 0 91,01 13,54
17 18.10.2017 08:30 10 0 93,79 12,13
18 18.10.2017 08:00 10 0 94,29 11,18
19 18.10.2017 07:30 10 0 94,73 10,01
20 18.10.2017 07:00 10 0 94,5 8,19
21 18.10.2017 06:30 10 0 94,32 7,74
22 18.10.2017 06:00 10 0 93,89 7,76
23 18.10.2017 05:30 10 0 93,72 8,75
24 18.10.2017 05:00 10 0 94,22 8,98
25 18.10.2017 04:30 10 0 93,8 8,62
26 18.10.2017 04:00 10 0 93,6 8,62
27 18.10.2017 03:30 10 0 93,2 9,21
28 18.10.2017 03:00 10 0 93,51 9,86
29 18.10.2017 02:30 10 0 93,55 9,31
30 18.10.2017 02:00 10 0 93,01 9,27
31 18.10.2017 01:30 10 0 92,62 9,15
32 18.10.2017 01:00 10 0 92,2 9,71
33 18.10.2017 00:30 10 0 91,94 9,81
34 18.10.2017 00:00 10 0 91,54 10,25
35 17.10.2017 23:30 10 0 91,24 10,21
36 17.10.2017 23:00 10 0 91,5 10,46
37 17.10.2017 22:30 10 0 91,66 10,71
38 17.10.2017 22:00 10 0 91,11 10,67
39 17.10.2017 21:30 10 0 90,14 10,93
40 17.10.2017 21:00 10 0 89,52 11,76
41 17.10.2017 20:30 10 0 88,57 11,82
42 17.10.2017 20:00 10 0 87,59 12
43 17.10.2017 19:30 10 0 86,95 12,2
44 17.10.2017 19:00 10 0 84,73 13,16
© 2011 Ministrstvo za kmetijstvo, gozdarstvo in prehrano. Vse pravice pridržane.